LYBE/BEG METAR and TAF weather

Enter ICAO airport designator
Station Type Date Time Source
LYBE METAR 2019/08/21 02:30 UTC NOAA

LYBE 210230Z 00000KT CAVOK 23/12 Q1018 NOSIG


Station Type Date Time Source
LYBE Decoded METAR 2019/08/21 02:30 UTC NOAA

Station name not available
Aug 20, 2019 - 10:30 PM EDT / 2019.08.21 0230 UTC
Wind: Calm:0
Visibility: greater than 7 mile(s):0
Temperature: 73 F (23 C)
Dew Point: 53 F (12 C)
Relative Humidity: 49%
Pressure (altimeter): 30.06 in. Hg (1018 hPa)
ob: LYBE 210230Z 00000KT CAVOK 23/12 Q1018 NOSIG
cycle: 2

Station Type Date Time Source
LYBE TAF 2019/08/20 18:21 UTC NOAA

TAF LYBE 201700Z 2018/2118 08007KT CAVOK TX34/2114Z TN20/2104Z

Example: see airport list